Airfield :







YOU CAN JOIN US ON...

 
LOGIN :

Register | Disclaimer

   EN    FR    IT 

 









Legend :    VFR   Marginal VFR   IFR   Intensive IFR   Very Intensive IFR
Visi :
Ceiling :
>= 8 km
>= 3000ft
5 to 8 km
1000 to 3000 ft
1500m to 5 km
500 to 1000 ft
800 to 1500m
200 to 500 ft
< 800m
< 200 ft
Symbols :   Thunderstorms  Fog  Heavy snow  Heavy precipitations  Wind > 20 kt






- Airport Elevation : 501 ft
- IATA code : YWB


CYKG - Kangiqsujuaq (Wakeham Bay)

CURRENT METAR :
  • 122017Z 15007KT 15SM BKN011 02/M01 A2993 RMK ST6 SLP148

EXPIRED METARs :
  • 122000Z 14007KT 15SM FEW011 02/M00 A2992 RMK ST1 SLP146
  • 121900Z 19005KT 150V280 15SM FEW010 03/M00 A2993 RMK ST2 SLP148
  • 121800Z 28004KT 250V320 15SM FEW015 02/M01 A2993 RMK ST1 SLP150

TAF AMD TAF CYKG
Valid from the 12 at 16:00 until the 12 at 21:00 UTC


121607Z 1216/1221 VRB03KT P6SM FEW004 SCT015
TEMPO 1216/1221 SCT004 BKN015 RMK NXT FCST WILL BE ISSUED AT 131345Z
CZUL FIR / North America



MET'MAP, your aeronautical weather chart ! - Copyright ORBIFLY December 2007 - Disclaimer

ORBIFLY MET'MAP TEAM :

Programming & Development : Alexandra Zaïnal
Concept & original design : Baudouin d'Aumeries
Assistance for programming : Marc-Olivier Méhu
Technical & hardware support : Manuel Goepfert

Contact : metmap@orbifly.com




SOURCES & CREDITS :

   NOAA